sensor_id;sensor_type;location;lat;lon;timestamp;P1;durP1;ratioP1;P2;durP2;ratioP2
56824;SDS011;42705;50.326;18.772;2023-08-24T00:04:42;10.40;;;6.50;;
56824;SDS011;42705;50.326;18.772;2023-08-24T00:10:04;10.00;;;6.40;;
56824;SDS011;42705;50.326;18.772;2023-08-24T00:15:25;9.70;;;5.60;;
56824;SDS011;42705;50.326;18.772;2023-08-24T00:20:48;10.40;;;6.10;;
56824;SDS011;42705;50.326;18.772;2023-08-24T00:31:31;10.30;;;6.00;;
56824;SDS011;42705;50.326;18.772;2023-08-24T00:36:53;10.50;;;6.10;;
56824;SDS011;42705;50.326;18.772;2023-08-24T00:42:14;9.40;;;5.90;;
56824;SDS011;42705;50.326;18.772;2023-08-24T00:47:36;9.80;;;6.00;;
56824;SDS011;42705;50.326;18.772;2023-08-24T00:53:00;12.60;;;6.60;;
56824;SDS011;42705;50.326;18.772;2023-08-24T00:58:21;10.60;;;6.30;;
56824;SDS011;42705;50.326;18.772;2023-08-24T01:03:44;15.00;;;6.40;;
56824;SDS011;42705;50.326;18.772;2023-08-24T01:09:05;10.80;;;7.10;;
56824;SDS011;42705;50.326;18.772;2023-08-24T01:14:35;13.00;;;7.80;;
56824;SDS011;42705;50.326;18.772;2023-08-24T01:20:18;14.50;;;7.50;;
56824;SDS011;42705;50.326;18.772;2023-08-24T01:25:42;19.60;;;9.30;;
56824;SDS011;42705;50.326;18.772;2023-08-24T01:31:15;15.80;;;9.90;;
56824;SDS011;42705;50.326;18.772;2023-08-24T01:36:37;13.00;;;8.10;;
56824;SDS011;42705;50.326;18.772;2023-08-24T01:42:00;16.60;;;9.60;;
56824;SDS011;42705;50.326;18.772;2023-08-24T01:47:25;18.00;;;9.40;;
56824;SDS011;42705;50.326;18.772;2023-08-24T01:52:48;11.70;;;7.80;;
56824;SDS011;42705;50.326;18.772;2023-08-24T01:58:10;13.00;;;7.60;;
56824;SDS011;42705;50.326;18.772;2023-08-24T02:03:32;10.40;;;7.10;;
56824;SDS011;42705;50.326;18.772;2023-08-24T02:08:53;10.80;;;7.00;;
56824;SDS011;42705;50.326;18.772;2023-08-24T02:14:14;12.70;;;7.20;;
56824;SDS011;42705;50.326;18.772;2023-08-24T02:19:36;12.30;;;6.60;;
56824;SDS011;42705;50.326;18.772;2023-08-24T02:24:57;11.80;;;7.40;;
56824;SDS011;42705;50.326;18.772;2023-08-24T02:30:18;11.30;;;6.20;;
56824;SDS011;42705;50.326;18.772;2023-08-24T02:35:39;9.00;;;5.90;;
56824;SDS011;42705;50.326;18.772;2023-08-24T02:41:04;10.50;;;6.50;;
56824;SDS011;42705;50.326;18.772;2023-08-24T02:46:27;9.40;;;5.90;;
56824;SDS011;42705;50.326;18.772;2023-08-24T02:51:49;9.60;;;6.20;;
56824;SDS011;42705;50.326;18.772;2023-08-24T02:57:10;11.20;;;6.10;;
56824;SDS011;42705;50.326;18.772;2023-08-24T03:02:31;9.30;;;5.60;;
56824;SDS011;42705;50.326;18.772;2023-08-24T03:07:52;9.40;;;6.20;;
56824;SDS011;42705;50.326;18.772;2023-08-24T03:13:15;18.10;;;7.10;;
56824;SDS011;42705;50.326;18.772;2023-08-24T03:18:36;11.50;;;6.10;;
56824;SDS011;42705;50.326;18.772;2023-08-24T03:23:58;12.20;;;6.50;;
56824;SDS011;42705;50.326;18.772;2023-08-24T03:29:19;13.30;;;8.40;;
56824;SDS011;42705;50.326;18.772;2023-08-24T03:34:41;13.30;;;8.90;;
56824;SDS011;42705;50.326;18.772;2023-08-24T03:40:03;16.00;;;10.50;;
56824;SDS011;42705;50.326;18.772;2023-08-24T03:45:24;14.70;;;10.10;;
56824;SDS011;42705;50.326;18.772;2023-08-24T03:50:46;15.00;;;11.00;;
56824;SDS011;42705;50.326;18.772;2023-08-24T03:56:07;16.70;;;10.70;;
56824;SDS011;42705;50.326;18.772;2023-08-24T04:01:28;17.40;;;10.70;;
56824;SDS011;42705;50.326;18.772;2023-08-24T04:06:50;17.10;;;9.90;;
56824;SDS011;42705;50.326;18.772;2023-08-24T04:12:11;14.40;;;8.80;;
56824;SDS011;42705;50.326;18.772;2023-08-24T04:17:32;16.00;;;9.20;;
56824;SDS011;42705;50.326;18.772;2023-08-24T04:22:54;15.20;;;9.20;;
56824;SDS011;42705;50.326;18.772;2023-08-24T04:28:15;14.50;;;8.20;;
56824;SDS011;42705;50.326;18.772;2023-08-24T04:33:36;13.70;;;9.20;;
56824;SDS011;42705;50.326;18.772;2023-08-24T04:38:57;13.60;;;8.50;;
56824;SDS011;42705;50.326;18.772;2023-08-24T04:44:18;13.10;;;8.50;;
56824;SDS011;42705;50.326;18.772;2023-08-24T04:49:40;15.50;;;8.60;;
56824;SDS011;42705;50.326;18.772;2023-08-24T04:55:01;10.70;;;8.00;;
56824;SDS011;42705;50.326;18.772;2023-08-24T05:00:23;14.30;;;8.40;;
56824;SDS011;42705;50.326;18.772;2023-08-24T05:05:45;13.90;;;8.80;;
56824;SDS011;42705;50.326;18.772;2023-08-24T05:11:20;10.60;;;9.20;;
56824;SDS011;42705;50.326;18.772;2023-08-24T05:16:45;11.90;;;7.80;;
56824;SDS011;42705;50.326;18.772;2023-08-24T05:22:06;9.50;;;7.60;;
56824;SDS011;42705;50.326;18.772;2023-08-24T05:27:27;12.90;;;8.70;;
56824;SDS011;42705;50.326;18.772;2023-08-24T05:32:48;12.90;;;8.60;;
56824;SDS011;42705;50.326;18.772;2023-08-24T05:38:09;14.40;;;8.90;;
56824;SDS011;42705;50.326;18.772;2023-08-24T05:43:30;11.20;;;8.60;;
56824;SDS011;42705;50.326;18.772;2023-08-24T05:48:51;14.50;;;8.50;;
56824;SDS011;42705;50.326;18.772;2023-08-24T05:54:12;17.00;;;9.80;;
56824;SDS011;42705;50.326;18.772;2023-08-24T05:59:38;15.80;;;11.00;;
56824;SDS011;42705;50.326;18.772;2023-08-24T06:04:59;13.00;;;10.80;;
56824;SDS011;42705;50.326;18.772;2023-08-24T06:10:20;17.10;;;11.10;;
56824;SDS011;42705;50.326;18.772;2023-08-24T06:15:41;20.30;;;15.00;;
56824;SDS011;42705;50.326;18.772;2023-08-24T06:21:03;18.00;;;11.90;;
56824;SDS011;42705;50.326;18.772;2023-08-24T06:26:24;20.30;;;12.50;;
56824;SDS011;42705;50.326;18.772;2023-08-24T06:31:45;18.40;;;11.10;;
56824;SDS011;42705;50.326;18.772;2023-08-24T06:37:06;16.70;;;11.90;;
56824;SDS011;42705;50.326;18.772;2023-08-24T06:42:28;21.40;;;13.20;;
56824;SDS011;42705;50.326;18.772;2023-08-24T06:47:49;22.60;;;13.90;;
56824;SDS011;42705;50.326;18.772;2023-08-24T06:53:10;18.60;;;10.70;;
56824;SDS011;42705;50.326;18.772;2023-08-24T06:58:31;18.20;;;11.80;;
56824;SDS011;42705;50.326;18.772;2023-08-24T07:03:52;17.70;;;10.40;;
56824;SDS011;42705;50.326;18.772;2023-08-24T07:09:13;14.20;;;11.10;;
56824;SDS011;42705;50.326;18.772;2023-08-24T07:14:36;18.90;;;11.20;;
56824;SDS011;42705;50.326;18.772;2023-08-24T07:19:57;15.70;;;9.80;;
56824;SDS011;42705;50.326;18.772;2023-08-24T07:25:18;12.70;;;7.60;;
56824;SDS011;42705;50.326;18.772;2023-08-24T07:30:41;13.10;;;8.00;;
56824;SDS011;42705;50.326;18.772;2023-08-24T07:36:02;8.30;;;5.60;;
56824;SDS011;42705;50.326;18.772;2023-08-24T07:41:25;7.30;;;4.90;;
56824;SDS011;42705;50.326;18.772;2023-08-24T07:46:49;6.90;;;5.40;;
56824;SDS011;42705;50.326;18.772;2023-08-24T07:52:11;7.50;;;4.90;;
56824;SDS011;42705;50.326;18.772;2023-08-24T07:57:36;6.40;;;4.10;;
56824;SDS011;42705;50.326;18.772;2023-08-24T08:02:58;6.70;;;4.10;;
56824;SDS011;42705;50.326;18.772;2023-08-24T08:13:41;6.00;;;3.70;;
56824;SDS011;42705;50.326;18.772;2023-08-24T08:19:02;5.20;;;3.80;;
56824;SDS011;42705;50.326;18.772;2023-08-24T08:24:23;4.40;;;3.20;;
56824;SDS011;42705;50.326;18.772;2023-08-24T08:29:44;9.80;;;4.10;;
56824;SDS011;42705;50.326;18.772;2023-08-24T08:35:06;6.10;;;3.10;;
56824;SDS011;42705;50.326;18.772;2023-08-24T08:40:29;5.30;;;2.50;;
56824;SDS011;42705;50.326;18.772;2023-08-24T08:51:14;5.50;;;2.70;;
56824;SDS011;42705;50.326;18.772;2023-08-24T08:56:38;3.60;;;2.50;;
56824;SDS011;42705;50.326;18.772;2023-08-24T09:02:02;3.90;;;2.40;;
56824;SDS011;42705;50.326;18.772;2023-08-24T09:07:24;4.60;;;2.20;;
56824;SDS011;42705;50.326;18.772;2023-08-24T09:12:46;4.40;;;2.30;;
56824;SDS011;42705;50.326;18.772;2023-08-24T09:18:07;4.60;;;2.10;;
56824;SDS011;42705;50.326;18.772;2023-08-24T09:23:28;4.20;;;2.00;;
56824;SDS011;42705;50.326;18.772;2023-08-24T09:28:50;3.90;;;2.50;;
56824;SDS011;42705;50.326;18.772;2023-08-24T09:34:11;5.40;;;2.10;;
56824;SDS011;42705;50.326;18.772;2023-08-24T09:44:54;5.20;;;1.90;;
56824;SDS011;42705;50.326;18.772;2023-08-24T09:50:15;7.30;;;2.20;;
56824;SDS011;42705;50.326;18.772;2023-08-24T09:55:36;7.50;;;1.80;;
56824;SDS011;42705;50.326;18.772;2023-08-24T10:01:00;2.90;;;1.60;;
56824;SDS011;42705;50.326;18.772;2023-08-24T10:06:25;3.60;;;1.30;;
56824;SDS011;42705;50.326;18.772;2023-08-24T10:11:52;2.00;;;1.50;;
56824;SDS011;42705;50.326;18.772;2023-08-24T10:17:19;3.50;;;2.50;;
56824;SDS011;42705;50.326;18.772;2023-08-24T10:22:43;2.60;;;1.60;;
56824;SDS011;42705;50.326;18.772;2023-08-24T10:33:26;3.00;;;1.70;;
56824;SDS011;42705;50.326;18.772;2023-08-24T10:38:49;3.70;;;2.00;;
56824;SDS011;42705;50.326;18.772;2023-08-24T10:44:11;4.30;;;1.90;;
56824;SDS011;42705;50.326;18.772;2023-08-24T10:50:01;3.60;;;2.00;;
56824;SDS011;42705;50.326;18.772;2023-08-24T10:55:24;4.40;;;2.20;;
56824;SDS011;42705;50.326;18.772;2023-08-24T11:00:48;2.60;;;2.10;;
56824;SDS011;42705;50.326;18.772;2023-08-24T11:06:22;4.20;;;2.10;;
56824;SDS011;42705;50.326;18.772;2023-08-24T11:11:55;4.10;;;1.90;;
56824;SDS011;42705;50.326;18.772;2023-08-24T11:17:18;3.10;;;2.40;;
56824;SDS011;42705;50.326;18.772;2023-08-24T11:22:40;3.70;;;1.90;;
56824;SDS011;42705;50.326;18.772;2023-08-24T11:28:02;5.50;;;2.30;;
56824;SDS011;42705;50.326;18.772;2023-08-24T11:38:51;3.50;;;2.20;;
56824;SDS011;42705;50.326;18.772;2023-08-24T11:44:14;5.20;;;2.40;;
56824;SDS011;42705;50.326;18.772;2023-08-24T11:49:35;4.10;;;2.30;;
56824;SDS011;42705;50.326;18.772;2023-08-24T11:54:58;3.90;;;2.30;;
56824;SDS011;42705;50.326;18.772;2023-08-24T12:00:20;5.00;;;2.10;;
56824;SDS011;42705;50.326;18.772;2023-08-24T12:05:42;5.60;;;2.10;;
56824;SDS011;42705;50.326;18.772;2023-08-24T12:11:03;2.90;;;2.20;;
56824;SDS011;42705;50.326;18.772;2023-08-24T12:16:32;4.90;;;1.90;;
56824;SDS011;42705;50.326;18.772;2023-08-24T12:21:53;4.50;;;2.50;;
56824;SDS011;42705;50.326;18.772;2023-08-24T12:27:18;3.60;;;2.10;;
56824;SDS011;42705;50.326;18.772;2023-08-24T12:32:48;2.80;;;2.20;;
56824;SDS011;42705;50.326;18.772;2023-08-24T12:38:11;2.10;;;1.80;;
56824;SDS011;42705;50.326;18.772;2023-08-24T12:43:32;4.10;;;1.90;;
56824;SDS011;42705;50.326;18.772;2023-08-24T12:48:54;2.20;;;1.70;;
56824;SDS011;42705;50.326;18.772;2023-08-24T12:54:15;4.40;;;1.80;;
56824;SDS011;42705;50.326;18.772;2023-08-24T12:59:36;3.50;;;1.80;;
56824;SDS011;42705;50.326;18.772;2023-08-24T13:04:57;2.60;;;1.80;;
56824;SDS011;42705;50.326;18.772;2023-08-24T13:10:23;3.80;;;1.70;;
56824;SDS011;42705;50.326;18.772;2023-08-24T13:15:46;2.40;;;1.60;;
56824;SDS011;42705;50.326;18.772;2023-08-24T13:21:09;6.90;;;1.90;;
56824;SDS011;42705;50.326;18.772;2023-08-24T13:26:30;2.40;;;1.70;;
56824;SDS011;42705;50.326;18.772;2023-08-24T13:31:51;3.00;;;1.50;;
56824;SDS011;42705;50.326;18.772;2023-08-24T13:37:12;5.30;;;1.80;;
56824;SDS011;42705;50.326;18.772;2023-08-24T13:42:34;8.90;;;1.50;;
56824;SDS011;42705;50.326;18.772;2023-08-24T13:47:55;1.90;;;1.60;;
56824;SDS011;42705;50.326;18.772;2023-08-24T13:53:16;5.10;;;1.40;;
56824;SDS011;42705;50.326;18.772;2023-08-24T13:58:37;4.00;;;1.50;;
56824;SDS011;42705;50.326;18.772;2023-08-24T14:03:59;3.20;;;1.50;;
56824;SDS011;42705;50.326;18.772;2023-08-24T14:09:20;3.40;;;1.30;;
56824;SDS011;42705;50.326;18.772;2023-08-24T14:14:41;3.20;;;1.10;;
56824;SDS011;42705;50.326;18.772;2023-08-24T14:20:03;1.60;;;1.20;;
56824;SDS011;42705;50.326;18.772;2023-08-24T14:25:29;3.70;;;1.40;;
56824;SDS011;42705;50.326;18.772;2023-08-24T14:30:51;6.30;;;1.60;;
56824;SDS011;42705;50.326;18.772;2023-08-24T14:36:12;1.60;;;1.40;;
56824;SDS011;42705;50.326;18.772;2023-08-24T14:41:33;2.10;;;1.50;;
56824;SDS011;42705;50.326;18.772;2023-08-24T14:46:55;2.90;;;1.60;;
56824;SDS011;42705;50.326;18.772;2023-08-24T14:52:16;3.50;;;1.70;;
56824;SDS011;42705;50.326;18.772;2023-08-24T14:57:37;2.20;;;1.40;;
56824;SDS011;42705;50.326;18.772;2023-08-24T15:02:58;2.90;;;1.60;;
56824;SDS011;42705;50.326;18.772;2023-08-24T15:08:20;1.90;;;1.70;;
56824;SDS011;42705;50.326;18.772;2023-08-24T15:13:41;2.70;;;1.40;;
56824;SDS011;42705;50.326;18.772;2023-08-24T15:19:02;2.70;;;1.30;;
56824;SDS011;42705;50.326;18.772;2023-08-24T15:24:23;2.80;;;1.50;;
56824;SDS011;42705;50.326;18.772;2023-08-24T15:29:44;3.80;;;1.70;;
56824;SDS011;42705;50.326;18.772;2023-08-24T15:35:06;3.40;;;1.50;;
56824;SDS011;42705;50.326;18.772;2023-08-24T15:40:29;4.10;;;1.60;;
56824;SDS011;42705;50.326;18.772;2023-08-24T15:45:52;3.80;;;1.40;;
56824;SDS011;42705;50.326;18.772;2023-08-24T15:51:13;1.60;;;1.20;;
56824;SDS011;42705;50.326;18.772;2023-08-24T15:56:34;1.60;;;1.30;;
56824;SDS011;42705;50.326;18.772;2023-08-24T16:01:57;3.30;;;1.60;;
56824;SDS011;42705;50.326;18.772;2023-08-24T16:07:18;2.30;;;1.60;;
56824;SDS011;42705;50.326;18.772;2023-08-24T16:12:39;3.60;;;1.50;;
56824;SDS011;42705;50.326;18.772;2023-08-24T16:18:00;6.90;;;1.90;;
56824;SDS011;42705;50.326;18.772;2023-08-24T16:23:21;3.80;;;1.70;;
56824;SDS011;42705;50.326;18.772;2023-08-24T16:28:42;3.50;;;1.60;;
56824;SDS011;42705;50.326;18.772;2023-08-24T16:34:03;2.60;;;1.60;;
56824;SDS011;42705;50.326;18.772;2023-08-24T16:39:25;4.90;;;2.10;;
56824;SDS011;42705;50.326;18.772;2023-08-24T16:44:50;3.80;;;2.00;;
56824;SDS011;42705;50.326;18.772;2023-08-24T16:50:11;3.30;;;1.90;;
56824;SDS011;42705;50.326;18.772;2023-08-24T16:55:32;3.10;;;1.80;;
56824;SDS011;42705;50.326;18.772;2023-08-24T17:00:53;6.70;;;2.70;;
56824;SDS011;42705;50.326;18.772;2023-08-24T17:06:15;5.10;;;2.10;;
56824;SDS011;42705;50.326;18.772;2023-08-24T17:11:36;7.00;;;2.30;;
56824;SDS011;42705;50.326;18.772;2023-08-24T17:16:58;4.90;;;2.30;;
56824;SDS011;42705;50.326;18.772;2023-08-24T17:22:19;5.30;;;2.70;;
56824;SDS011;42705;50.326;18.772;2023-08-24T17:27:40;6.80;;;2.70;;
56824;SDS011;42705;50.326;18.772;2023-08-24T17:33:01;3.50;;;2.60;;
56824;SDS011;42705;50.326;18.772;2023-08-24T17:38:23;4.60;;;2.50;;
56824;SDS011;42705;50.326;18.772;2023-08-24T17:43:44;3.00;;;2.60;;
56824;SDS011;42705;50.326;18.772;2023-08-24T17:49:05;4.60;;;2.40;;
56824;SDS011;42705;50.326;18.772;2023-08-24T17:54:26;5.30;;;3.00;;
56824;SDS011;42705;50.326;18.772;2023-08-24T18:05:09;18.20;;;8.20;;
56824;SDS011;42705;50.326;18.772;2023-08-24T18:10:30;27.70;;;12.50;;
56824;SDS011;42705;50.326;18.772;2023-08-24T18:15:51;17.80;;;9.80;;
56824;SDS011;42705;50.326;18.772;2023-08-24T18:21:12;14.20;;;7.90;;
56824;SDS011;42705;50.326;18.772;2023-08-24T18:31:55;15.00;;;8.30;;
56824;SDS011;42705;50.326;18.772;2023-08-24T18:37:16;11.90;;;6.70;;
56824;SDS011;42705;50.326;18.772;2023-08-24T18:42:37;11.50;;;7.10;;
56824;SDS011;42705;50.326;18.772;2023-08-24T18:47:59;12.40;;;7.00;;
56824;SDS011;42705;50.326;18.772;2023-08-24T18:53:20;10.60;;;7.40;;
56824;SDS011;42705;50.326;18.772;2023-08-24T18:58:41;15.20;;;8.60;;
56824;SDS011;42705;50.326;18.772;2023-08-24T19:04:03;10.60;;;7.10;;
56824;SDS011;42705;50.326;18.772;2023-08-24T19:09:24;11.30;;;7.20;;
56824;SDS011;42705;50.326;18.772;2023-08-24T19:14:45;13.00;;;8.00;;
56824;SDS011;42705;50.326;18.772;2023-08-24T19:20:07;10.80;;;7.30;;
56824;SDS011;42705;50.326;18.772;2023-08-24T19:25:29;12.50;;;8.80;;
56824;SDS011;42705;50.326;18.772;2023-08-24T19:30:50;19.50;;;12.80;;
56824;SDS011;42705;50.326;18.772;2023-08-24T19:36:14;16.30;;;11.00;;
56824;SDS011;42705;50.326;18.772;2023-08-24T19:41:35;19.20;;;10.50;;
56824;SDS011;42705;50.326;18.772;2023-08-24T19:46:56;15.80;;;11.40;;
56824;SDS011;42705;50.326;18.772;2023-08-24T19:52:18;13.20;;;8.60;;
56824;SDS011;42705;50.326;18.772;2023-08-24T19:57:39;12.50;;;8.30;;
56824;SDS011;42705;50.326;18.772;2023-08-24T20:03:00;11.90;;;9.80;;
56824;SDS011;42705;50.326;18.772;2023-08-24T20:08:22;11.80;;;7.60;;
56824;SDS011;42705;50.326;18.772;2023-08-24T20:13:45;20.60;;;14.70;;
56824;SDS011;42705;50.326;18.772;2023-08-24T20:19:07;18.70;;;8.70;;
56824;SDS011;42705;50.326;18.772;2023-08-24T20:24:29;16.40;;;8.50;;
56824;SDS011;42705;50.326;18.772;2023-08-24T20:29:50;13.80;;;8.60;;
56824;SDS011;42705;50.326;18.772;2023-08-24T20:35:11;15.50;;;8.00;;
56824;SDS011;42705;50.326;18.772;2023-08-24T20:40:33;14.80;;;7.60;;
56824;SDS011;42705;50.326;18.772;2023-08-24T20:45:54;12.10;;;8.00;;
56824;SDS011;42705;50.326;18.772;2023-08-24T20:51:15;12.80;;;8.60;;
56824;SDS011;42705;50.326;18.772;2023-08-24T20:56:36;15.60;;;8.60;;
56824;SDS011;42705;50.326;18.772;2023-08-24T21:01:57;22.00;;;9.30;;
56824;SDS011;42705;50.326;18.772;2023-08-24T21:07:19;14.90;;;8.60;;
56824;SDS011;42705;50.326;18.772;2023-08-24T21:12:40;16.20;;;9.20;;
56824;SDS011;42705;50.326;18.772;2023-08-24T21:18:02;15.00;;;8.80;;
56824;SDS011;42705;50.326;18.772;2023-08-24T21:23:23;17.50;;;9.50;;
56824;SDS011;42705;50.326;18.772;2023-08-24T21:28:45;13.70;;;8.90;;
56824;SDS011;42705;50.326;18.772;2023-08-24T21:34:06;14.90;;;9.60;;
56824;SDS011;42705;50.326;18.772;2023-08-24T21:39:27;18.50;;;10.00;;
56824;SDS011;42705;50.326;18.772;2023-08-24T21:44:49;13.40;;;9.50;;
56824;SDS011;42705;50.326;18.772;2023-08-24T21:50:10;21.70;;;11.90;;
56824;SDS011;42705;50.326;18.772;2023-08-24T21:55:35;19.10;;;12.30;;
56824;SDS011;42705;50.326;18.772;2023-08-24T22:01:00;17.10;;;11.10;;
56824;SDS011;42705;50.326;18.772;2023-08-24T22:06:23;19.40;;;10.90;;
56824;SDS011;42705;50.326;18.772;2023-08-24T22:11:44;24.90;;;11.80;;
56824;SDS011;42705;50.326;18.772;2023-08-24T22:17:05;15.50;;;9.90;;
56824;SDS011;42705;50.326;18.772;2023-08-24T22:22:26;17.90;;;9.60;;
56824;SDS011;42705;50.326;18.772;2023-08-24T22:27:47;20.10;;;11.10;;
56824;SDS011;42705;50.326;18.772;2023-08-24T22:33:09;18.80;;;10.50;;
56824;SDS011;42705;50.326;18.772;2023-08-24T22:38:30;20.10;;;10.60;;
56824;SDS011;42705;50.326;18.772;2023-08-24T22:43:53;17.10;;;10.70;;
56824;SDS011;42705;50.326;18.772;2023-08-24T22:49:14;17.20;;;10.40;;
56824;SDS011;42705;50.326;18.772;2023-08-24T22:54:36;18.30;;;10.40;;
56824;SDS011;42705;50.326;18.772;2023-08-24T22:59:57;15.60;;;9.70;;
56824;SDS011;42705;50.326;18.772;2023-08-24T23:05:19;17.70;;;9.20;;
56824;SDS011;42705;50.326;18.772;2023-08-24T23:10:42;20.20;;;9.90;;
56824;SDS011;42705;50.326;18.772;2023-08-24T23:16:03;15.60;;;9.00;;
56824;SDS011;42705;50.326;18.772;2023-08-24T23:21:25;15.40;;;8.80;;
56824;SDS011;42705;50.326;18.772;2023-08-24T23:26:46;17.70;;;8.90;;
56824;SDS011;42705;50.326;18.772;2023-08-24T23:32:08;12.40;;;8.60;;
56824;SDS011;42705;50.326;18.772;2023-08-24T23:37:29;14.10;;;7.90;;
56824;SDS011;42705;50.326;18.772;2023-08-24T23:42:51;14.90;;;8.60;;
56824;SDS011;42705;50.326;18.772;2023-08-24T23:48:12;10.80;;;7.80;;
56824;SDS011;42705;50.326;18.772;2023-08-24T23:53:33;11.10;;;7.60;;
56824;SDS011;42705;50.326;18.772;2023-08-24T23:58:54;14.50;;;7.80;;
